Terminal Aerodrome Forecast
Issued by NWS North Platte, NE

Home | Current Version | Previous Version | Text Only | Print | Product List | Glossary Off
Versions: 1 2 3 4 5 6 7 8 9 10 11 12 13

335
FTUS43 KLBF 161126
TAFVTN
TAF
KVTN 161126Z 1612/1712 VRB04KT P6SM VCSH OVC090
     FM161600 33007KT P6SM OVC090
     FM161800 33012G17KT P6SM BKN100
     FM170000 32010KT P6SM SCT100 BKN250
     FM170900 29006KT P6SM FEW250=

USA.gov is the U.S. government's official web portal to all federal, state and local government web resources and services.